Time;durP1;ratioP1;P1;durP2;ratioP2;P2;SDS_P1;SDS_P2;PMS_P1;PMS_P2;Temp;Humidity;BMP_temperature;BMP_pressure;BME280_temperature;BME280_humidity;BME280_pressure;Samples;Min_cycle;Max_cycle;Signal;HPM_P1;HPM_P2
2021/07/12 00:01:09;;;;;;;11.10;6.20;;;640.90;1868.80;;;;;;5093315;28;20035;-74
2021/07/12 00:03:35;;;;;;;10.57;6.65;;;640.90;1868.80;;;;;;5093689;28;20036;-72
2021/07/12 00:06:00;;;;;;;10.98;6.47;;;640.90;1868.80;;;;;;5093340;28;20070;-72
2021/07/12 00:08:26;;;;;;;10.32;6.60;;;640.80;1868.80;;;;;;5093237;28;20032;-72
2021/07/12 00:10:52;;;;;;;9.73;6.47;;;640.90;1894.40;;;;;;5093302;28;20020;-72
2021/07/12 00:13:18;;;;;;;8.50;6.45;;;640.90;1920.00;;;;;;5092923;28;20114;-73
2021/07/12 00:15:43;;;;;;;8.05;6.43;;;640.80;1920.00;;;;;;5076115;28;20024;-73
2021/07/12 00:18:09;;;;;;;10.60;6.32;;;640.70;1920.00;;;;;;5093112;28;20460;-72
2021/07/12 00:20:35;;;;;;;11.25;6.78;;;640.60;1920.00;;;;;;5093252;28;20066;-72
2021/07/12 00:23:01;;;;;;;12.70;7.07;;;640.50;1920.00;;;;;;5092888;28;20028;-74
2021/07/12 00:25:29;;;;;;;8.30;6.85;;;640.50;1945.60;;;;;;5092984;28;20027;-76
2021/07/12 00:27:56;;;;;;;11.02;7.25;;;640.50;1945.60;;;;;;5093278;28;20020;-80
2021/07/12 00:30:22;;;;;;;8.75;7.00;;;640.50;1920.00;;;;;;5092700;28;20474;-73
2021/07/12 00:32:49;;;;;;;10.35;7.35;;;640.50;1945.60;;;;;;5092859;28;20024;-73
2021/07/12 00:35:15;;;;;;;10.00;7.22;;;640.50;1945.60;;;;;;5092962;28;20023;-75
2021/07/12 00:37:41;;;;;;;9.15;7.20;;;640.50;1945.60;;;;;;5092842;28;20384;-73
2021/07/12 00:40:12;;;;;;;10.80;7.10;;;640.50;1945.60;;;;;;5092753;28;20024;-72
2021/07/12 00:42:38;;;;;;;11.45;7.20;;;640.50;1971.20;;;;;;5092672;28;20109;-71
2021/07/12 00:45:08;;;;;;;8.73;6.95;;;640.60;1945.60;;;;;;5092892;28;20058;-71
2021/07/12 00:47:34;;;;;;;9.25;6.80;;;640.50;1971.20;;;;;;5092469;28;20026;-73
2021/07/12 00:49:59;;;;;;;12.00;8.10;;;640.50;1945.60;;;;;;5092722;28;20103;-72
2021/07/12 00:52:26;;;;;;;16.60;11.18;;;640.50;1945.60;;;;;;5092493;28;20024;-72
2021/07/12 00:54:51;;;;;;;14.23;10.18;;;640.40;1945.60;;;;;;5092839;28;20031;-72
2021/07/12 00:57:17;;;;;;;15.30;9.30;;;640.50;1945.60;;;;;;5092892;28;20016;-72
2021/07/12 00:59:43;;;;;;;12.45;8.25;;;640.50;1945.60;;;;;;5092469;28;20048;-75
2021/07/12 01:02:09;;;;;;;11.68;8.25;;;640.40;1971.20;;;;;;5092750;28;20028;-76
2021/07/12 01:04:36;;;;;;;9.80;8.10;;;640.30;1971.20;;;;;;5092396;28;20024;-76
2021/07/12 01:07:01;;;;;;;9.25;7.90;;;640.10;1996.80;;;;;;5092703;28;20035;-76
2021/07/12 01:09:27;;;;;;;10.00;7.85;;;640.00;2048.00;;;;;;5092198;28;20024;-75
2021/07/12 01:12:19;;;;;;;12.05;7.82;;;615.30;2048.00;;;;;;5092561;28;20028;-71
2021/07/12 01:15:06;;;;;;;10.27;7.40;;;615.20;2048.00;;;;;;5092009;28;20097;-72
2021/07/12 01:18:00;;;;;;;10.23;7.57;;;615.20;2073.60;;;;;;5092679;28;20054;-71
2021/07/12 01:20:43;;;;;;;11.23;7.75;;;615.10;2073.60;;;;;;5080269;28;20022;-71
2021/07/12 01:23:28;;;;;;;10.88;8.10;;;615.00;2073.60;;;;;;5092431;28;20399;-73
2021/07/12 01:26:24;;;;;;;11.85;8.07;;;614.90;2099.20;;;;;;5092358;28;20031;-72
2021/07/12 01:29:12;;;;;;;10.48;7.70;;;614.90;2124.80;;;;;;5079515;28;20024;-73
2021/07/12 01:32:15;;;;;;;10.40;7.70;;;614.90;2150.40;;;;;;5092203;28;20024;-73
2021/07/12 01:34:59;;;;;;;11.30;7.90;;;614.80;2150.40;;;;;;5092254;28;20024;-70
2021/07/12 01:37:52;;;;;;;9.10;7.05;;;614.70;2150.40;;;;;;5092212;28;20020;-71
2021/07/12 01:40:35;;;;;;;10.48;6.57;;;614.80;2099.20;;;;;;5092619;28;20106;-74
2021/07/12 01:43:09;;;;;;;14.43;6.63;;;614.80;2073.60;;;;;;5096092;28;20035;-71
2021/07/12 01:45:46;;;;;;;9.30;6.22;;;614.90;2073.60;;;;;;5095996;28;20039;-75
2021/07/12 01:48:19;;;;;;;9.60;6.68;;;614.90;2073.60;;;;;;5096020;28;20020;-75
2021/07/12 01:50:52;;;;;;;11.32;6.05;;;614.90;2048.00;;;;;;5095942;28;20020;-78
2021/07/12 01:54:15;;;;;;;10.35;7.03;;;615.00;2048.00;;;;;;5096135;28;20024;-73
2021/07/12 01:56:49;;;;;;;11.50;7.85;;;614.90;2099.20;;;;;;5073437;28;20090;-75
2021/07/12 01:59:40;;;;;;;10.80;7.70;;;614.70;2176.00;;;;;;5091173;28;20422;-72
2021/07/12 02:02:07;;;;;;;11.77;7.97;;;614.50;2227.20;;;;;;5095792;28;20028;-73
2021/07/12 02:04:34;;;;;;;10.13;8.10;;;589.70;2252.80;;;;;;5095491;28;20099;-73
2021/07/12 02:07:01;;;;;;;11.40;7.75;;;589.60;2304.00;;;;;;5095732;28;20051;-73
2021/07/12 02:09:28;;;;;;;10.10;8.07;;;589.50;2329.60;;;;;;5095705;28;20028;-73
2021/07/12 02:11:58;;;;;;;9.88;7.75;;;589.40;2329.60;;;;;;5095670;28;20051;-71
2021/07/12 02:14:24;;;;;;;10.73;7.82;;;589.40;2355.20;;;;;;5095366;28;20052;-72
2021/07/12 02:16:52;;;;;;;11.55;8.30;;;589.40;2355.20;;;;;;5095635;28;20036;-71
2021/07/12 02:19:20;;;;;;;12.88;7.90;;;589.30;2380.80;;;;;;5095600;28;20099;-74
2021/07/12 02:21:48;;;;;;;9.57;7.55;;;589.20;2380.80;;;;;;5095352;28;20020;-74
2021/07/12 02:24:16;;;;;;;9.05;7.40;;;589.30;2380.80;;;;;;5083813;28;20479;-72
2021/07/12 02:26:44;;;;;;;8.27;7.25;;;589.30;2380.80;;;;;;5092808;28;20023;-75
2021/07/12 02:29:11;;;;;;;7.97;7.18;;;589.30;2406.40;;;;;;5095268;28;20055;-73
2021/07/12 02:31:38;;;;;;;10.40;7.43;;;589.30;2406.40;;;;;;5094916;28;20385;-72
2021/07/12 02:34:04;;;;;;;11.98;8.27;;;589.30;2406.40;;;;;;5095206;28;20012;-72
2021/07/12 02:36:31;;;;;;;11.02;7.75;;;589.40;2380.80;;;;;;5095078;28;20050;-75
2021/07/12 02:38:59;;;;;;;12.30;8.18;;;589.50;2380.80;;;;;;5095211;28;20043;-71
2021/07/12 02:41:26;;;;;;;11.77;8.00;;;589.30;2432.00;;;;;;5095325;28;20467;-73
2021/07/12 02:43:54;;;;;;;12.90;8.13;;;589.20;2432.00;;;;;;5084179;28;20020;-71
2021/07/12 02:46:20;;;;;;;11.98;8.32;;;589.20;2432.00;;;;;;5095173;28;20119;-72
2021/07/12 02:48:46;;;;;;;13.23;8.32;;;589.10;2432.00;;;;;;5094664;28;20111;-72
2021/07/12 02:51:17;;;;;;;13.25;9.10;;;589.00;2432.00;;;;;;5094706;28;20095;-72
2021/07/12 02:53:48;;;;;;;14.75;8.70;;;589.00;2432.00;;;;;;5094857;28;20406;-73
2021/07/12 02:56:14;;;;;;;12.48;9.18;;;589.00;2432.00;;;;;;5094577;28;20039;-72
2021/07/12 02:58:40;;;;;;;16.67;9.32;;;589.00;2432.00;;;;;;5094639;28;20036;-72
2021/07/12 03:01:06;;;;;;;13.85;9.52;;;589.10;2432.00;;;;;;5096729;28;20398;-78
2021/07/12 03:03:32;;;;;;;13.05;8.88;;;589.00;2432.00;;;;;;5094565;28;20031;-82
2021/07/12 03:06:15;;;;;;;208.13;23.30;;;588.90;2432.00;;;;;;5076426;28;20031;-84
2021/07/12 03:09:09;;;;;;;31.77;29.58;;;588.90;2432.00;;;;;;5076499;28;20023;-82
2021/07/12 03:11:41;;;;;;;688.72;638.20;;;588.90;2432.00;;;;;;5094732;28;20031;-76
2021/07/12 03:14:10;;;;;;;31.95;20.67;;;588.90;2432.00;;;;;;5094152;28;20501;-81
2021/07/12 03:16:38;;;;;;;19.33;15.68;;;589.00;2432.00;;;;;;5094486;28;20126;-77
2021/07/12 03:19:10;;;;;;;13.27;9.68;;;589.00;2432.00;;;;;;5076269;28;20447;-77
2021/07/12 03:21:43;;;;;;;13.57;9.43;;;589.00;2432.00;;;;;;5094560;28;20394;-83
2021/07/12 03:24:09;;;;;;;21.10;10.57;;;589.10;2432.00;;;;;;5079163;28;20024;-82
2021/07/12 03:26:43;;;;;;;18.65;9.73;;;589.10;2432.00;;;;;;5108450;28;20500;-74
2021/07/12 03:29:12;;;;;;;13.20;9.57;;;589.00;2432.00;;;;;;5098550;28;20028;-81
2021/07/12 03:31:39;;;;;;;61.92;57.88;;;588.90;2432.00;;;;;;5094420;28;20501;-84
2021/07/12 03:34:06;;;;;;;398.20;374.33;;;589.10;2432.00;;;;;;5076323;28;20020;-83
2021/07/12 03:36:32;;;;;;;13.00;10.43;;;589.10;2432.00;;;;;;5095181;28;20035;-82
2021/07/12 03:38:59;;;;;;;31.33;28.80;;;589.20;2432.00;;;;;;5099605;28;20382;-83
2021/07/12 03:41:26;;;;;;;14.70;10.65;;;589.20;2432.00;;;;;;5082429;28;20035;-83
2021/07/12 03:43:52;;;;;;;12.35;10.02;;;589.30;2432.00;;;;;;5098690;28;20027;-83
2021/07/12 03:46:17;;;;;;;14.38;11.18;;;589.20;2432.00;;;;;;5095238;28;20104;-86
2021/07/12 03:48:46;;;;;;;14.38;11.98;;;589.30;2432.00;;;;;;5108893;28;20028;-85
2021/07/12 03:51:23;;;;;;;21.52;14.75;;;589.40;2432.00;;;;;;5095035;28;20036;-73
2021/07/12 03:53:49;;;;;;;32.00;20.13;;;589.40;2432.00;;;;;;5093693;28;20032;-73
2021/07/12 03:56:15;;;;;;;39.75;27.85;;;589.50;2432.00;;;;;;5092800;28;20056;-71
2021/07/12 03:58:41;;;;;;;31.83;19.33;;;589.60;2432.00;;;;;;5093518;28;20039;-75
2021/07/12 04:01:07;;;;;;;40.25;20.65;;;589.70;2432.00;;;;;;5093737;28;20024;-75
2021/07/12 04:03:33;;;;;;;35.00;20.75;;;589.70;2432.00;;;;;;5092558;28;20024;-72
2021/07/12 04:05:59;;;;;;;29.27;18.38;;;614.50;2432.00;;;;;;5093356;28;20024;-72
2021/07/12 04:08:25;;;;;;;23.23;17.92;;;614.60;2432.00;;;;;;5092833;28;20402;-73
2021/07/12 04:10:51;;;;;;;26.00;16.88;;;614.60;2432.00;;;;;;5093271;28;20035;-72
2021/07/12 04:13:17;;;;;;;24.50;17.58;;;614.80;2432.00;;;;;;5092902;28;20024;-73
2021/07/12 04:15:43;;;;;;;30.10;17.58;;;614.80;2432.00;;;;;;5093272;28;20032;-76
2021/07/12 04:18:10;;;;;;;25.80;16.65;;;614.80;2432.00;;;;;;5093603;28;20048;-76
2021/07/12 04:20:36;;;;;;;23.58;15.60;;;614.90;2432.00;;;;;;5093503;28;20501;-75
2021/07/12 04:23:03;;;;;;;21.77;13.70;;;615.00;2432.00;;;;;;5093055;28;20056;-76
2021/07/12 04:25:29;;;;;;;21.50;12.80;;;614.90;2432.00;;;;;;5092927;28;20023;-75
2021/07/12 04:27:56;;;;;;;17.23;11.27;;;614.80;2432.00;;;;;;5093080;28;20024;-77
2021/07/12 04:30:22;;;;;;;15.35;11.25;;;614.80;2432.00;;;;;;5093030;28;20107;-73
2021/07/12 04:32:48;;;;;;;14.90;10.88;;;614.80;2432.00;;;;;;5092809;28;20423;-72
2021/07/12 04:35:14;;;;;;;15.85;10.63;;;614.80;2432.00;;;;;;5092878;28;20107;-73
2021/07/12 04:37:40;;;;;;;14.32;10.18;;;614.90;2432.00;;;;;;5092607;28;20095;-73
2021/07/12 04:40:07;;;;;;;12.05;10.68;;;615.00;2432.00;;;;;;5092706;28;20050;-71
2021/07/12 04:42:33;;;;;;;16.02;10.88;;;615.10;2432.00;;;;;;5074629;28;20089;-71
2021/07/12 04:44:59;;;;;;;14.65;11.00;;;615.30;2432.00;;;;;;5092701;28;20478;-72
2021/07/12 04:47:25;;;;;;;12.77;11.48;;;640.10;2432.00;;;;;;5092439;28;20046;-73
2021/07/12 04:49:50;;;;;;;14.13;12.35;;;640.30;2432.00;;;;;;5092533;28;20405;-73
2021/07/12 04:52:16;;;;;;;15.30;12.40;;;640.50;2432.00;;;;;;5074448;28;20032;-73
2021/07/12 04:54:42;;;;;;;35.85;33.63;;;640.50;2432.00;;;;;;5092275;28;20466;-73
2021/07/12 04:57:08;;;;;;;13.55;12.25;;;640.60;2432.00;;;;;;5092737;28;20059;-72
2021/07/12 04:59:44;;;;;;;15.52;12.52;;;640.60;2432.00;;;;;;5092536;28;20082;-77
2021/07/12 05:02:12;;;;;;;14.27;12.68;;;640.60;2432.00;;;;;;5092599;28;20478;-75
2021/07/12 05:04:38;;;;;;;14.73;13.45;;;665.80;2432.00;;;;;;5092600;28;20022;-78
2021/07/12 05:07:05;;;;;;;21.33;19.58;;;666.10;2432.00;;;;;;5092497;28;20028;-77
2021/07/12 05:09:31;;;;;;;35.63;33.05;;;793.60;2432.00;;;;;;5092228;28;20478;-74
2021/07/12 05:11:57;;;;;;;40.30;37.50;;;870.60;2124.80;;;;;;5092299;28;20115;-72
2021/07/12 05:14:24;;;;;;;37.95;35.78;;;922.10;1894.40;;;;;;5074281;28;20052;-72
2021/07/12 05:16:50;;;;;;;23.42;21.63;;;972.90;1715.20;;;;;;5095192;28;20036;-70
2021/07/12 05:19:16;;;;;;;35.05;32.85;;;998.40;1638.40;;;;;;5096575;28;20016;-71
2021/07/12 05:21:42;;;;;;;58.05;54.80;;;922.00;1664.00;;;;;;5096421;28;20035;-70
2021/07/12 05:24:08;;;;;;;60.10;57.13;;;922.10;1689.60;;;;;;5096405;28;20031;-72
2021/07/12 05:26:34;;;;;;;52.25;49.38;;;973.50;1612.80;;;;;;5096359;28;20067;-72
2021/07/12 05:29:00;;;;;;;55.70;52.75;;;999.00;1536.00;;;;;;5096190;28;20049;-72
2021/07/12 05:31:26;;;;;;;54.03;51.28;;;1024.40;1510.40;;;;;;5096613;28;20024;-73
2021/07/12 05:33:52;;;;;;;68.80;65.22;;;1049.80;1484.80;;;;;;5096080;28;20013;-73
2021/07/12 05:36:18;;;;;;;81.93;77.80;;;1050.40;1433.60;;;;;;5096508;28;20019;-73
2021/07/12 05:38:44;;;;;;;106.68;101.68;;;1050.30;1408.00;;;;;;5096004;28;20114;-72
2021/07/12 05:41:10;;;;;;;88.10;83.97;;;1024.20;1433.60;;;;;;5096035;28;20032;-72
2021/07/12 05:43:36;;;;;;;98.75;94.22;;;922.20;1561.60;;;;;;5096266;28;20086;-76
2021/07/12 05:46:03;;;;;;;101.05;95.93;;;845.50;1689.60;;;;;;5077704;28;20012;-76
2021/07/12 05:48:29;;;;;;;103.10;97.82;;;819.60;1740.80;;;;;;5095801;28;20028;-77
2021/07/12 05:50:54;;;;;;;90.07;85.80;;;793.80;1843.20;;;;;;5111601;28;20132;-78
2021/07/12 05:53:20;;;;;;;86.53;82.25;;;768.40;1868.80;;;;;;5097246;28;20085;-78
2021/07/12 05:55:46;;;;;;;83.00;78.93;;;743.30;1920.00;;;;;;5096091;28;20046;-78
2021/07/12 05:58:12;;;;;;;70.90;67.00;;;743.00;1945.60;;;;;;5096230;28;20028;-82
2021/07/12 06:00:38;;;;;;;77.07;73.53;;;742.80;1945.60;;;;;;5096216;28;20059;-84
2021/07/12 06:03:04;;;;;;;71.47;67.93;;;742.50;1971.20;;;;;;5096016;28;20024;-83
2021/07/12 06:05:29;;;;;;;67.18;63.65;;;742.40;1996.80;;;;;;5096073;28;20031;-83
2021/07/12 06:07:55;;;;;;;68.85;65.25;;;742.60;1996.80;;;;;;5077845;28;20024;-82
2021/07/12 06:10:21;;;;;;;63.80;60.58;;;742.60;1996.80;;;;;;5095969;28;20020;-81
2021/07/12 06:12:47;;;;;;;70.50;66.80;;;742.60;2022.40;;;;;;5095859;28;20509;-74
2021/07/12 06:15:13;;;;;;;64.53;61.10;;;742.60;2022.40;;;;;;5095305;28;20123;-78
2021/07/12 06:17:39;;;;;;;62.78;59.22;;;742.50;2022.40;;;;;;5096052;28;20504;-84
2021/07/12 06:20:07;;;;;;;61.78;58.35;;;742.40;2048.00;;;;;;5095937;28;20482;-82
2021/07/12 06:22:33;;;;;;;60.53;56.78;;;717.70;2048.00;;;;;;5096004;28;20074;-84
2021/07/12 06:24:58;;;;;;;158.10;150.48;;;717.70;2048.00;;;;;;5096007;28;20031;-81
2021/07/12 06:27:24;;;;;;;61.75;58.25;;;717.40;2073.60;;;;;;5095100;28;20110;-82
2021/07/12 06:29:50;;;;;;;57.42;53.92;;;717.40;2073.60;;;;;;5095757;28;20377;-83
2021/07/12 06:32:16;;;;;;;53.17;50.08;;;717.40;2099.20;;;;;;5095677;28;20028;-83
2021/07/12 06:34:41;;;;;;;53.75;50.30;;;717.40;2099.20;;;;;;5099241;28;20039;-82
2021/07/12 06:37:07;;;;;;;53.97;50.67;;;717.40;2124.80;;;;;;5105296;28;20016;-80
2021/07/12 06:39:33;;;;;;;56.72;53.20;;;717.40;2099.20;;;;;;5102314;28;20024;-83
2021/07/12 06:41:59;;;;;;;63.75;60.22;;;717.70;2099.20;;;;;;5077077;28;20043;-73
2021/07/12 06:44:24;;;;;;;72.65;68.55;;;742.60;2099.20;;;;;;5094818;28;20023;-77
2021/07/12 06:46:50;;;;;;;72.75;68.93;;;742.80;2073.60;;;;;;5076862;28;20028;-78
2021/07/12 06:49:16;;;;;;;87.43;83.18;;;742.90;2073.60;;;;;;5095151;28;20016;-82
2021/07/12 06:51:42;;;;;;;94.95;90.07;;;743.00;2073.60;;;;;;5076605;28;20020;-76
2021/07/12 06:54:07;;;;;;;107.60;102.35;;;743.30;2073.60;;;;;;5094910;28;20024;-76
2021/07/12 06:56:34;;;;;;;124.50;118.65;;;768.10;2048.00;;;;;;5094767;28;20395;-82
2021/07/12 06:59:00;;;;;;;117.45;111.88;;;768.40;2073.60;;;;;;5094913;28;20557;-78
2021/07/12 07:01:27;;;;;;;134.77;128.35;;;768.60;2022.40;;;;;;5094635;28;20103;-77
2021/07/12 07:03:52;;;;;;;157.27;149.70;;;793.60;2022.40;;;;;;5094906;28;20027;-83
2021/07/12 07:06:18;;;;;;;174.52;166.75;;;794.10;2022.40;;;;;;5094931;28;20028;-82
2021/07/12 07:08:44;;;;;;;164.10;156.90;;;794.20;1996.80;;;;;;5094564;28;20024;-84
2021/07/12 07:11:09;;;;;;;332.10;316.00;;;794.40;1971.20;;;;;;5094906;28;20028;-83
2021/07/12 07:13:35;;;;;;;246.00;234.60;;;794.50;1971.20;;;;;;5094898;28;20044;-83
2021/07/12 07:16:01;;;;;;;252.07;240.57;;;819.50;1920.00;;;;;;5096150;28;20488;-82
2021/07/12 07:18:27;;;;;;;229.68;219.43;;;819.90;1894.40;;;;;;5095296;28;20025;-82
2021/07/12 07:20:52;;;;;;;151.75;144.68;;;844.90;1920.00;;;;;;5096004;28;20509;-82
2021/07/12 07:23:18;;;;;;;142.77;135.93;;;870.70;1817.60;;;;;;5095573;28;20020;-82
2021/07/12 07:25:44;;;;;;;195.30;186.80;;;896.90;1715.20;;;;;;5094553;28;20052;-79
2021/07/12 07:28:10;;;;;;;145.85;91.68;;;999.10;1587.20;;;;;;5094662;28;20106;-80
2021/07/12 07:30:37;;;;;;;88.60;84.32;;;1101.00;1433.60;;;;;;5094338;28;20099;-79
2021/07/12 07:33:03;;;;;;;95.55;91.03;;;1127.30;1356.80;;;;;;5094362;28;20020;-80
2021/07/12 07:35:29;;;;;;;111.18;106.07;;;1152.00;1331.20;;;;;;5094314;28;20035;-75
2021/07/12 07:37:57;;;;;;;92.75;88.25;;;1152.00;1305.60;;;;;;5093520;28;20075;-75
2021/07/12 07:40:23;;;;;;;103.13;98.47;;;1126.90;1305.60;;;;;;5093864;28;20508;-74
2021/07/12 07:42:48;;;;;;;258.00;246.52;;;1127.00;1280.00;;;;;;5093993;28;20091;-76
2021/07/12 07:45:15;;;;;;;222.32;212.60;;;1075.70;1305.60;;;;;;5095825;28;20024;-76
2021/07/12 07:47:42;;;;;;;75.10;71.38;;;1024.20;1382.40;;;;;;5102855;28;20024;-77
2021/07/12 07:50:09;;;;;;;135.23;129.05;;;973.70;1433.60;;;;;;5099571;28;20024;-78
2021/07/12 07:52:35;;;;;;;146.60;139.85;;;948.10;1459.20;;;;;;5096520;28;20513;-72
2021/07/12 07:55:02;;;;;;;105.60;100.65;;;948.00;1459.20;;;;;;5093163;28;20020;-74
2021/07/12 07:57:28;;;;;;;79.60;75.55;;;998.60;1459.20;;;;;;5095448;28;20031;-76
2021/07/12 07:59:54;;;;;;;395.15;375.33;;;1075.30;1382.40;;;;;;5099379;28;20386;-78
2021/07/12 08:02:19;;;;;;;503.02;478.17;;;1126.50;1305.60;;;;;;5098683;28;20046;-78
2021/07/12 08:04:45;;;;;;;520.42;493.80;;;1177.60;1228.80;;;;;;5099086;28;20027;-77
2021/07/12 08:07:11;;;;;;;534.88;507.75;;;1152.20;1254.40;;;;;;5098455;28;20020;-78
2021/07/12 08:09:36;;;;;;;461.13;438.02;;;1203.80;1203.20;;;;;;5099843;28;20028;-78
2021/07/12 08:12:03;;;;;;;422.10;401.80;;;1229.50;1177.60;;;;;;5098139;28;20024;-74
2021/07/12 08:14:29;;;;;;;494.02;468.98;;;1178.20;1177.60;;;;;;5095449;28;20073;-73
2021/07/12 08:16:55;;;;;;;502.65;476.42;;;1075.80;1280.00;;;;;;5093155;28;20108;-73
2021/07/12 08:19:21;;;;;;;454.10;431.75;;;1024.10;1356.80;;;;;;5093197;28;20055;-73
2021/07/12 08:21:47;;;;;;;276.33;263.42;;;1050.40;1331.20;;;;;;5093513;28;20062;-73
2021/07/12 08:24:12;;;;;;;305.45;291.50;;;1075.50;1305.60;;;;;;5093135;28;20099;-73
2021/07/12 08:26:38;;;;;;;244.52;233.32;;;1024.60;1356.80;;;;;;5093176;28;20109;-76
2021/07/12 08:29:05;;;;;;;210.50;200.98;;;1126.40;1280.00;;;;;;5093047;28;20500;-76
2021/07/12 08:31:30;;;;;;;173.13;165.35;;;1177.60;1228.80;;;;;;5093027;28;20036;-72
2021/07/12 08:33:56;;;;;;;189.93;181.02;;;1203.90;1177.60;;;;;;5092818;28;20111;-71
2021/07/12 08:36:23;;;;;;;218.70;209.13;;;1228.90;1177.60;;;;;;5092828;28;20008;-72
2021/07/12 08:38:49;;;;;;;19.90;13.00;;;1254.90;1152.00;;;;;;5092369;28;20492;-72
2021/07/12 08:41:16;;;;;;;519.15;286.58;;;1280.50;1126.40;;;;;;5092783;28;20083;-72
2021/07/12 08:43:42;;;;;;;571.60;536.15;;;1280.90;1100.80;;;;;;5092787;28;20016;-71
2021/07/12 08:46:09;;;;;;;908.10;842.03;;;1306.30;1100.80;;;;;;5092678;28;20023;-71
2021/07/12 08:48:34;;;;;;;843.40;785.72;;;1306.30;1100.80;;;;;;5092503;28;20381;-71
2021/07/12 08:51:00;;;;;;;713.88;667.33;;;1331.20;1100.80;;;;;;5092084;28;20103;-73
2021/07/12 08:53:27;;;;;;;772.50;723.00;;;1331.20;1100.80;;;;;;5092407;28;20501;-71
2021/07/12 08:55:53;;;;;;;836.35;780.80;;;1331.40;1100.80;;;;;;5092487;28;20024;-72
2021/07/12 08:58:23;;;;;;;893.40;829.72;;;1255.00;1100.80;;;;;;5092481;28;20059;-72
2021/07/12 09:01:00;;;;;;;854.97;796.05;;;1254.80;1100.80;;;;;;5092406;28;20478;-71
2021/07/12 09:03:39;;;;;;;855.90;794.28;;;1178.00;1126.40;;;;;;5092822;28;20020;-72
2021/07/12 09:06:10;;;;;;;996.20;914.33;;;1152.10;1203.20;;;;;;5092814;28;20070;-72
2021/07/12 09:08:45;;;;;;;1047.00;953.53;;;1101.00;1254.40;;;;;;5092336;28;20067;-71
2021/07/12 09:11:25;;;;;;;1073.00;970.33;;;1050.20;1280.00;;;;;;5092599;28;20032;-71
2021/07/12 09:14:03;;;;;;;1109.22;998.35;;;1024.70;1280.00;;;;;;5092649;28;20047;-72
2021/07/12 09:16:44;;;;;;;1120.78;999.90;;;999.00;1331.20;;;;;;5092826;28;20024;-72
2021/07/12 09:19:17;;;;;;;1112.35;999.17;;;973.70;1356.80;;;;;;5090783;28;20050;-74
2021/07/12 09:21:43;;;;;;;1108.78;999.13;;;973.50;1356.80;;;;;;5090557;28;20020;-72
2021/07/12 09:24:17;;;;;;;1126.05;999.90;;;973.20;1382.40;;;;;;5092208;28;20091;-73
2021/07/12 09:26:48;;;;;;;1108.53;996.85;;;947.90;1382.40;;;;;;5092073;28;20047;-72
2021/07/12 09:29:30;;;;;;;1139.88;999.90;;;947.50;1408.00;;;;;;5092398;28;20070;-71
2021/07/12 09:31:56;;;;;;;1091.57;989.08;;;947.40;1408.00;;;;;;5092495;28;20020;-75
2021/07/12 09:34:23;;;;;;;1127.97;999.90;;;922.50;1433.60;;;;;;5092354;28;20389;-73
2021/07/12 09:36:51;;;;;;;1136.10;999.90;;;922.00;1459.20;;;;;;5092237;28;20024;-77
2021/07/12 09:39:20;;;;;;;1144.60;999.90;;;921.90;1459.20;;;;;;5092141;28;20074;-72
2021/07/12 09:41:47;;;;;;;1144.80;999.90;;;922.00;1459.20;;;;;;5092079;28;20055;-70
2021/07/12 09:44:13;;;;;;;1161.20;999.90;;;921.80;1484.80;;;;;;5091739;28;20077;-75
2021/07/12 09:46:39;;;;;;;1153.65;999.90;;;896.70;1459.20;;;;;;5092203;28;20020;-76
2021/07/12 09:49:16;;;;;;;1115.57;999.20;;;896.70;1459.20;;;;;;5091837;28;20389;-74
2021/07/12 09:51:43;;;;;;;1307.70;999.90;;;896.50;1484.80;;;;;;5090404;28;20032;-74
2021/07/12 09:54:23;;;;;;;1128.30;999.90;;;896.30;1510.40;;;;;;5091706;28;20458;-71
2021/07/12 09:56:50;;;;;;;;;;;896.30;1510.40;;;;;;5092301;28;20028;-71
2021/07/12 09:59:17;;;;;;;1319.90;999.90;;;896.20;1510.40;;;;;;5091734;28;19907;-71
2021/07/12 10:01:56;;;;;;;1160.68;999.90;;;896.00;1510.40;;;;;;5092506;28;20693;-69
2021/07/12 10:04:23;;;;;;;1120.32;999.53;;;896.30;1510.40;;;;;;5095494;28;20031;-70
2021/07/12 10:06:51;;;;;;;1241.88;999.90;;;896.20;1510.40;;;;;;5095665;28;20409;-71
2021/07/12 10:09:22;;;;;;;1458.60;999.90;;;871.10;1536.00;;;;;;5095615;28;20494;-73
2021/07/12 10:11:54;;;;;;;1328.65;999.90;;;871.20;1536.00;;;;;;5095294;28;20028;-73
2021/07/12 10:14:22;;;;;;;1084.57;975.63;;;871.10;1536.00;;;;;;5090303;28;20056;-69
2021/07/12 10:16:49;;;;;;;1100.85;989.30;;;871.20;1536.00;;;;;;5094747;28;20078;-70
2021/07/12 10:19:16;;;;;;;1100.30;991.00;;;871.20;1561.60;;;;;;5095331;28;20020;-74
2021/07/12 10:21:51;;;;;;;1113.32;999.13;;;896.00;1536.00;;;;;;5098419;28;20031;-73
2021/07/12 10:24:25;;;;;;;1100.65;987.22;;;871.30;1536.00;;;;;;5096779;28;20539;-70
2021/07/12 10:26:56;;;;;;;1111.65;995.85;;;871.10;1561.60;;;;;;5094889;28;20012;-70
2021/07/12 10:29:33;;;;;;;1109.82;996.15;;;871.30;1561.60;;;;;;5094946;28;20024;-76
2021/07/12 10:32:02;;;;;;;1109.45;996.70;;;871.30;1561.60;;;;;;5094923;28;20081;-70
2021/07/12 10:34:36;;;;;;;1113.00;998.78;;;896.10;1561.60;;;;;;5095100;28;20050;-75
2021/07/12 10:37:07;;;;;;;1123.93;999.90;;;871.30;1536.00;;;;;;5094891;28;20028;-76
2021/07/12 10:40:04;;;;;;;1098.05;986.78;;;896.00;1536.00;;;;;;5095130;28;20382;-75
2021/07/12 10:42:45;;;;;;;1114.72;997.47;;;871.10;1536.00;;;;;;5095318;28;20052;-76
2021/07/12 10:45:20;;;;;;;1136.68;999.90;;;896.00;1536.00;;;;;;5095028;28;20012;-69
2021/07/12 10:47:54;;;;;;;1108.20;995.50;;;896.00;1536.00;;;;;;5103772;28;20048;-72
2021/07/12 10:51:03;;;;;;;1118.32;997.22;;;871.30;1536.00;;;;;;5101437;28;20106;-70
2021/07/12 10:53:34;;;;;;;1128.53;999.90;;;871.10;1536.00;;;;;;5077266;28;20039;-69
2021/07/12 10:56:10;;;;;;;1171.20;999.90;;;871.10;1536.00;;;;;;5095130;28;20414;-67
2021/07/12 10:58:37;;;;;;;1109.40;995.90;;;871.10;1561.60;;;;;;5094437;28;20031;-68
2021/07/12 11:01:08;;;;;;;1160.57;999.90;;;871.30;1536.00;;;;;;5097488;28;20031;-69
2021/07/12 11:03:39;;;;;;;1109.82;999.60;;;896.00;1536.00;;;;;;5094975;28;20046;-72
2021/07/12 11:06:05;;;;;;;1096.28;987.70;;;896.30;1510.40;;;;;;5094640;28;20016;-69
2021/07/12 11:08:47;;;;;;;1105.78;992.50;;;896.30;1484.80;;;;;;5094369;28;20016;-77
2021/07/12 11:11:38;;;;;;;1107.85;996.25;;;896.00;1484.80;;;;;;5094346;28;20065;-73
2021/07/12 11:14:06;;;;;;;1082.25;978.22;;;896.30;1459.20;;;;;;5082335;28;20036;-67
2021/07/12 11:16:45;;;;;;;1091.05;987.15;;;896.20;1433.60;;;;;;5094101;28;20493;-69
2021/07/12 11:19:28;;;;;;;1085.07;978.03;;;896.20;1433.60;;;;;;5091944;28;20106;-70
2021/07/12 11:22:14;;;;;;;1092.68;990.08;;;896.30;1408.00;;;;;;5094171;28;20074;-70
2021/07/12 11:25:06;;;;;;;1088.55;983.88;;;896.40;1433.60;;;;;;5093155;28;20024;-68
2021/07/12 11:27:35;;;;;;;1096.10;990.63;;;896.40;1408.00;;;;;;5080354;28;20060;-68
2021/07/12 11:30:25;;;;;;;1076.28;972.78;;;896.60;1433.60;;;;;;5093962;28;20026;-72
2021/07/12 11:32:50;;;;;;;1106.07;997.05;;;896.70;1408.00;;;;;;5093819;28;20119;-73
2021/07/12 11:35:16;;;;;;;1074.72;970.38;;;896.90;1408.00;;;;;;5094063;28;20103;-72
2021/07/12 11:37:42;;;;;;;1112.47;997.78;;;896.90;1408.00;;;;;;5093809;28;20024;-73
2021/07/12 11:40:09;;;;;;;1032.47;944.80;;;896.90;1382.40;;;;;;5093643;28;20020;-68
2021/07/12 11:42:38;;;;;;;1001.03;918.75;;;922.40;1382.40;;;;;;5093878;28;20024;-74
2021/07/12 11:45:13;;;;;;;974.78;899.53;;;998.70;1305.60;;;;;;5093945;28;20099;-73
2021/07/12 11:47:53;;;;;;;920.28;853.55;;;1050.20;1254.40;;;;;;5093887;28;20016;-72
2021/07/12 11:50:21;;;;;;;798.03;748.22;;;1100.90;1228.80;;;;;;5093686;28;20024;-72
2021/07/12 11:52:52;;;;;;;688.80;647.95;;;1101.40;1177.60;;;;;;5093572;28;20178;-72
2021/07/12 11:55:26;;;;;;;663.70;626.00;;;1127.00;1177.60;;;;;;5093306;28;20019;-68
2021/07/12 11:57:58;;;;;;;622.47;587.50;;;1152.40;1177.60;;;;;;5093166;28;20051;-68
2021/07/12 12:00:28;;;;;;;718.13;674.83;;;1177.70;1126.40;;;;;;5092859;28;20024;-73
2021/07/12 12:02:57;;;;;;;792.00;740.50;;;1178.10;1126.40;;;;;;5093071;28;20066;-73